Search for airport 
image banner adimage banner adimage banner ad
image banner ad

N59 - Rosaschi Air Park

Located in Smith, United States

ICAO - N59, IATA -

Data provided by Airmate  

General information

Coordinates: N38°50'22" W119°20'18"
Elevation is 4809 feet MSL.
Magnetic variation is 16° East
View others Airports in Nevada

Operational data

Special qualification required
Current time UTC:
Current local time:
Weather at : KMEV - Minden-Tahoe ( 40 km )
METAR: KMEV 092235Z AUTO VRB04G10KT 10SM CLR 21/M06 A2995 RMK AO2
TAF: KMEV 091720Z 0918/1018 VRB05KT P6SM SKC FM092200 32011G21KT P6SM SCT100 FM100600 35014G23KT P6SM SKC FM101400 35008KT P6SM SKC
View NOTAMs / SUP AIP / TFR affecting this airport [VIEW]
Communications frequencies: [VIEW]

Runways:

RWY identifierQFULength (ft)Width (ft)SurfaceLDA (ft)
07480032ASPH
25480032ASPH
17370064EARTH
35370064EARTH

Airport contact information

Address: Smith United States

Satellite view of N59